createdAt,value
2022-11-15T00:01:19.146Z,3.72
2022-11-15T00:03:47.762Z,3.72
2022-11-15T00:06:16.088Z,3.71
2022-11-15T00:08:44.108Z,3.72
2022-11-15T00:11:14.925Z,3.69
2022-11-15T00:13:43.289Z,3.62
2022-11-15T00:16:12.274Z,3.56
2022-11-15T00:18:40.676Z,3.58
2022-11-15T00:21:13.089Z,3.60
2022-11-15T00:23:41.417Z,3.61
2022-11-15T00:26:13.137Z,3.58
2022-11-15T00:28:43.053Z,3.61
2022-11-15T00:31:14.708Z,3.60
2022-11-15T00:33:45.535Z,3.58
2022-11-15T00:36:13.805Z,3.64
2022-11-15T00:38:42.255Z,3.65
2022-11-15T00:41:10.899Z,3.65
2022-11-15T00:43:40.882Z,3.66
2022-11-15T00:46:10.813Z,3.69
2022-11-15T00:48:38.990Z,3.75
2022-11-15T00:51:07.349Z,3.82
2022-11-15T00:53:35.549Z,3.87
2022-11-15T00:56:03.737Z,3.93
2022-11-15T00:58:31.735Z,4.03
2022-11-15T01:01:08.177Z,4.04
2022-11-15T01:03:38.299Z,4.10
2022-11-15T01:06:07.440Z,4.13
2022-11-15T01:08:35.741Z,4.10
2022-11-15T01:11:04.678Z,4.04
2022-11-15T01:13:34.307Z,3.99
2022-11-15T01:16:07.620Z,3.93
2022-11-15T01:18:37.057Z,3.87
2022-11-15T01:21:08.679Z,3.78
2022-11-15T01:23:37.043Z,3.74
2022-11-15T01:26:06.876Z,3.74
2022-11-15T01:28:35.823Z,3.77
2022-11-15T01:31:05.696Z,3.67
2022-11-15T01:33:37.924Z,3.61
2022-11-15T01:36:07.120Z,3.56
2022-11-15T01:38:35.455Z,3.49
2022-11-15T01:41:03.514Z,3.32
2022-11-15T01:43:34.150Z,3.29
2022-11-15T01:46:06.534Z,3.27
2022-11-15T01:48:36.165Z,3.25
2022-11-15T01:51:09.297Z,3.27
2022-11-15T01:53:39.985Z,3.29
2022-11-15T01:56:11.943Z,3.32
2022-11-15T01:58:42.553Z,3.36
2022-11-15T02:01:10.700Z,3.35
2022-11-15T02:03:44.937Z,3.35
2022-11-15T02:06:14.646Z,3.43
2022-11-15T02:08:43.122Z,3.42
2022-11-15T02:11:11.433Z,3.42
2022-11-15T02:13:39.717Z,3.34
2022-11-15T02:16:15.699Z,3.34
2022-11-15T02:18:51.320Z,3.43
2022-11-15T02:21:29.675Z,3.54
2022-11-15T02:24:36.054Z,3.52
2022-11-15T02:27:46.944Z,3.49
2022-11-15T02:30:40.331Z,3.40
2022-11-15T02:33:21.201Z,3.40
2022-11-15T02:35:59.462Z,3.42
2022-11-15T02:38:35.103Z,3.37
2022-11-15T02:41:07.338Z,3.36
2022-11-15T02:43:59.788Z,3.44
2022-11-15T02:46:58.396Z,3.55
2022-11-15T02:49:29.718Z,3.51
2022-11-15T02:51:58.442Z,3.56
2022-11-15T02:54:28.468Z,3.64
2022-11-15T02:57:02.903Z,3.70
2022-11-15T02:59:54.361Z,3.70
2022-11-15T03:02:38.802Z,3.76
2022-11-15T03:05:16.152Z,3.85
2022-11-15T03:07:51.300Z,3.91
2022-11-15T03:10:26.652Z,3.95
2022-11-15T03:12:59.512Z,3.97
2022-11-15T03:15:31.892Z,3.94
2022-11-15T03:18:07.063Z,3.81
2022-11-15T03:20:37.393Z,3.76
2022-11-15T03:23:08.549Z,3.75
2022-11-15T03:25:40.239Z,3.72
2022-11-15T03:28:11.578Z,3.75
2022-11-15T03:30:40.873Z,3.79
2022-11-15T03:33:11.944Z,3.75
2022-11-15T03:35:42.668Z,3.68
2022-11-15T03:38:17.856Z,3.65
2022-11-15T03:40:51.601Z,3.67
2022-11-15T03:43:27.949Z,3.62
2022-11-15T03:46:01.361Z,3.56
2022-11-15T03:48:35.835Z,3.51
2022-11-15T03:51:05.764Z,3.52
2022-11-15T03:53:34.079Z,3.49
2022-11-15T03:56:02.350Z,3.40
2022-11-15T03:58:30.402Z,3.30
2022-11-15T04:00:58.444Z,3.27
2022-11-15T04:03:26.550Z,3.31
2022-11-15T04:05:56.010Z,3.36
2022-11-15T04:08:24.038Z,3.41
2022-11-15T04:10:52.394Z,3.44
2022-11-15T04:13:20.402Z,3.29
2022-11-15T04:15:48.362Z,3.19
2022-11-15T04:18:16.410Z,3.09
2022-11-15T04:21:01.900Z,3.03
2022-11-15T04:23:48.921Z,2.98
2022-11-15T04:26:19.959Z,2.98
2022-11-15T04:29:01.809Z,2.95
2022-11-15T04:31:30.135Z,2.93
2022-11-15T04:33:58.562Z,2.88
2022-11-15T04:36:44.176Z,2.86
2022-11-15T04:39:13.632Z,2.76
2022-11-15T04:41:41.625Z,2.71
2022-11-15T04:44:10.645Z,2.68
2022-11-15T04:46:38.648Z,2.69
2022-11-15T04:49:06.609Z,2.65
2022-11-15T04:51:34.596Z,2.64
2022-11-15T04:54:02.659Z,2.62
2022-11-15T04:56:32.035Z,2.65
2022-11-15T04:59:00.035Z,2.69
2022-11-15T05:01:28.032Z,2.68
2022-11-15T05:04:13.605Z,2.67
2022-11-15T05:06:41.608Z,2.63
2022-11-15T05:09:09.693Z,2.52
2022-11-15T05:11:39.017Z,2.44
2022-11-15T05:14:07.152Z,2.42
2022-11-15T05:16:35.184Z,2.33
2022-11-15T05:19:04.139Z,2.37
2022-11-15T05:21:32.125Z,2.46
2022-11-15T05:24:00.309Z,2.43
2022-11-15T05:26:28.533Z,2.36
2022-11-15T05:28:59.369Z,2.36
2022-11-15T05:31:29.381Z,2.34
2022-11-15T05:34:00.651Z,2.29
2022-11-15T05:36:35.757Z,2.37
2022-11-15T05:39:04.477Z,2.47
2022-11-15T05:41:36.065Z,2.47
2022-11-15T05:44:08.323Z,2.54
2022-11-15T05:46:38.115Z,2.65
2022-11-15T05:49:11.289Z,2.77
2022-11-15T05:51:39.595Z,2.86
2022-11-15T05:54:07.873Z,2.85
2022-11-15T05:56:35.936Z,2.78
2022-11-15T05:59:05.838Z,2.69
2022-11-15T06:01:33.966Z,2.69
2022-11-15T06:04:02.097Z,2.65
2022-11-15T06:06:30.104Z,2.58
2022-11-15T06:08:58.201Z,2.59
2022-11-15T06:11:26.329Z,2.63
2022-11-15T06:13:54.391Z,2.68
2022-11-15T06:16:23.889Z,2.77
2022-11-15T06:18:51.969Z,2.90
2022-11-15T06:21:20.049Z,2.88
2022-11-15T06:23:48.053Z,2.86
2022-11-15T06:26:16.070Z,2.85
2022-11-15T06:28:44.066Z,2.79
2022-11-15T06:31:13.331Z,2.73
2022-11-15T06:33:42.901Z,2.73
2022-11-15T06:36:17.458Z,2.72
2022-11-15T06:38:46.083Z,2.77
2022-11-15T06:41:15.511Z,2.75
2022-11-15T06:43:43.895Z,2.70
2022-11-15T06:46:11.976Z,2.78
2022-11-15T06:48:40.021Z,2.88
2022-11-15T06:51:09.706Z,2.88
2022-11-15T06:53:37.972Z,2.82
2022-11-15T06:56:08.333Z,2.77
2022-11-15T06:58:36.484Z,2.80
2022-11-15T07:01:06.955Z,2.85
2022-11-15T07:03:37.385Z,2.95
2022-11-15T07:06:07.637Z,2.99
2022-11-15T07:08:38.555Z,3.03
2022-11-15T07:11:09.160Z,3.00
2022-11-15T07:13:38.402Z,3.06
2022-11-15T07:16:07.689Z,3.04
2022-11-15T07:18:36.809Z,3.05
2022-11-15T07:21:06.349Z,3.10
2022-11-15T07:23:34.992Z,3.21
2022-11-15T07:26:04.518Z,3.26
2022-11-15T07:28:32.999Z,3.27
2022-11-15T07:31:04.371Z,3.24
2022-11-15T07:33:32.783Z,3.34
2022-11-15T07:36:02.993Z,3.43
2022-11-15T07:38:31.371Z,3.52
2022-11-15T07:41:00.148Z,3.61
2022-11-15T07:43:31.044Z,3.64
2022-11-15T07:45:59.863Z,3.56
2022-11-15T07:48:40.222Z,3.53
2022-11-15T07:51:14.599Z,3.47
2022-11-15T07:53:44.366Z,3.41
2022-11-15T07:56:14.326Z,3.44
2022-11-15T07:58:43.791Z,3.47
2022-11-15T08:01:12.559Z,3.44
2022-11-15T08:03:40.657Z,3.48
2022-11-15T08:06:08.723Z,3.47
2022-11-15T08:08:36.708Z,3.60
2022-11-15T08:11:04.856Z,3.69
2022-11-15T08:13:33.217Z,3.79
2022-11-15T08:16:03.944Z,3.77
2022-11-15T08:18:32.186Z,3.93
2022-11-15T08:21:02.163Z,4.03
2022-11-15T08:23:30.876Z,3.94
2022-11-15T08:26:04.148Z,4.01
2022-11-15T08:28:32.884Z,4.04
2022-11-15T08:31:02.392Z,4.00
2022-11-15T08:33:31.188Z,4.12
2022-11-15T08:36:00.190Z,4.17
2022-11-15T08:38:29.920Z,4.17
2022-11-15T08:41:03.458Z,4.19
2022-11-15T08:43:32.196Z,4.27
2022-11-15T08:46:02.199Z,4.35
2022-11-15T08:48:30.285Z,4.38
2022-11-15T08:50:59.463Z,4.25
2022-11-15T08:53:27.559Z,4.20
2022-11-15T08:55:55.660Z,4.11
2022-11-15T08:58:23.741Z,4.16
2022-11-15T09:00:51.741Z,4.26
2022-11-15T09:03:21.202Z,4.34
2022-11-15T09:05:49.299Z,4.19
2022-11-15T09:08:46.129Z,4.26
2022-11-15T09:11:05.873Z,4.42
2022-11-15T09:13:34.206Z,4.53
2022-11-15T09:16:03.594Z,4.59
2022-11-15T09:18:33.230Z,4.51
2022-11-15T09:21:03.310Z,4.59
2022-11-15T09:23:31.452Z,4.67
2022-11-15T09:26:03.910Z,4.57
2022-11-15T09:28:32.969Z,4.59
2022-11-15T09:31:02.382Z,4.65
2022-11-15T09:33:32.269Z,4.86
2022-11-15T09:36:03.678Z,5.13
2022-11-15T09:38:31.764Z,5.37
2022-11-15T09:41:35.802Z,5.43
2022-11-15T09:44:25.107Z,5.43
2022-11-15T09:47:03.640Z,5.51
2022-11-15T09:49:34.319Z,5.56
2022-11-15T09:52:02.932Z,5.65
2022-11-15T09:57:26.798Z,5.74
2022-11-15T10:03:06.766Z,5.82
2022-11-15T10:05:40.845Z,5.68
2022-11-15T10:08:23.421Z,5.75
2022-11-15T10:11:35.476Z,5.78
2022-11-15T10:13:52.368Z,5.80
2022-11-15T10:16:45.786Z,5.85
2022-11-15T10:19:22.722Z,6.06
2022-11-15T10:22:01.664Z,6.26
2022-11-15T10:24:33.133Z,6.28
2022-11-15T10:27:01.173Z,6.01
2022-11-15T10:29:29.381Z,6.05
2022-11-15T10:31:57.453Z,6.15
2022-11-15T10:34:27.726Z,6.16
2022-11-15T10:37:02.951Z,6.27
2022-11-15T10:39:33.522Z,6.41
2022-11-15T10:42:18.281Z,6.56
2022-11-15T10:44:47.203Z,6.52
2022-11-15T10:47:28.457Z,6.40
2022-11-15T10:50:01.982Z,6.45
2022-11-15T10:52:32.846Z,6.41
2022-11-15T10:55:05.861Z,6.34
2022-11-15T10:57:38.571Z,6.32
2022-11-15T11:00:09.132Z,6.34
2022-11-15T11:02:39.081Z,6.25
2022-11-15T11:05:15.076Z,6.20
2022-11-15T11:07:58.523Z,6.18
2022-11-15T11:10:50.579Z,6.10
2022-11-15T11:13:16.612Z,6.06
2022-11-15T11:15:47.938Z,5.96
2022-11-15T11:18:25.678Z,5.94
2022-11-15T11:21:00.252Z,6.07
2022-11-15T11:23:48.157Z,6.17
2022-11-15T11:26:38.016Z,6.19
2022-11-15T11:29:18.566Z,6.16
2022-11-15T11:31:56.631Z,6.16
2022-11-15T11:34:38.723Z,6.21
2022-11-15T11:37:16.588Z,6.16
2022-11-15T11:39:56.411Z,6.15
2022-11-15T11:42:32.455Z,6.26
2022-11-15T11:45:08.102Z,6.21
2022-11-15T11:47:42.375Z,6.18
2022-11-15T11:50:16.551Z,6.08
2022-11-15T11:53:00.906Z,5.88
2022-11-15T11:55:39.599Z,5.82
2022-11-15T11:58:15.492Z,5.82
2022-11-15T12:00:49.365Z,5.87
2022-11-15T12:03:27.673Z,5.98
2022-11-15T12:05:58.966Z,6.14
2022-11-15T12:08:35.676Z,6.20
2022-11-15T12:11:12.501Z,6.27
2022-11-15T12:13:40.846Z,6.22
2022-11-15T12:16:16.968Z,6.29
2022-11-15T12:18:49.720Z,6.39
2022-11-15T12:21:28.330Z,6.36
2022-11-15T12:24:05.172Z,6.35
2022-11-15T12:26:40.625Z,6.35
2022-11-15T12:29:17.515Z,6.35
2022-11-15T12:31:49.886Z,6.36
2022-11-15T12:34:37.839Z,6.25
2022-11-15T12:37:36.352Z,6.19
2022-11-15T12:40:21.598Z,6.28
2022-11-15T12:43:16.423Z,6.16
2022-11-15T12:45:45.907Z,6.07
2022-11-15T12:48:59.485Z,6.14
2022-11-15T12:52:08.070Z,6.14
2022-11-15T12:55:32.356Z,6.02
2022-11-15T12:58:29.300Z,5.89
2022-11-15T13:00:57.788Z,5.78
2022-11-15T13:03:28.596Z,5.77
2022-11-15T13:06:28.043Z,5.65
2022-11-15T13:08:56.182Z,5.72
2022-11-15T13:12:02.718Z,5.79
2022-11-15T13:14:51.687Z,5.85
2022-11-15T13:17:38.834Z,5.87
2022-11-15T13:20:29.178Z,5.94
2022-11-15T13:23:04.838Z,5.88
2022-11-15T13:26:11.300Z,5.80
2022-11-15T13:28:41.233Z,5.69
2022-11-15T13:31:29.962Z,5.59
2022-11-15T13:34:07.338Z,5.69
2022-11-15T13:36:45.917Z,5.82
2022-11-15T13:39:27.469Z,5.87
2022-11-15T13:41:55.943Z,5.81
2022-11-15T13:44:26.149Z,5.85
2022-11-15T13:47:06.101Z,5.89
2022-11-15T13:49:35.230Z,5.90
2022-11-15T13:52:07.189Z,5.73
2022-11-15T13:54:39.401Z,5.50
2022-11-15T13:57:14.672Z,5.47
2022-11-15T13:59:49.357Z,5.49
2022-11-15T14:02:23.576Z,5.52
2022-11-15T14:04:55.273Z,5.60
2022-11-15T14:07:28.736Z,5.55
2022-11-15T14:09:56.899Z,5.57
2022-11-15T14:12:31.752Z,5.68
2022-11-15T14:15:01.253Z,5.78
2022-11-15T14:17:45.764Z,5.84
2022-11-15T14:20:31.776Z,5.92
2022-11-15T14:23:01.513Z,5.96
2022-11-15T14:25:30.753Z,5.99
2022-11-15T14:28:14.824Z,6.02
2022-11-15T14:30:44.183Z,6.06
2022-11-15T14:33:32.790Z,6.08
2022-11-15T14:36:06.455Z,6.12
2022-11-15T14:38:35.911Z,6.11
2022-11-15T14:41:04.262Z,6.11
2022-11-15T14:43:32.394Z,6.12
2022-11-15T14:46:00.381Z,6.07
2022-11-15T14:48:28.368Z,5.92
2022-11-15T14:50:58.625Z,5.81
2022-11-15T14:53:26.610Z,5.80
2022-11-15T14:55:55.160Z,5.75
2022-11-15T14:58:23.113Z,5.77
2022-11-15T15:00:51.187Z,5.79
2022-11-15T15:03:19.133Z,5.80
2022-11-15T15:05:47.057Z,5.81
2022-11-15T15:08:16.570Z,5.84
2022-11-15T15:10:47.203Z,5.87
2022-11-15T15:13:19.730Z,5.87
2022-11-15T15:15:48.393Z,5.90
2022-11-15T15:18:16.585Z,5.89
2022-11-15T15:20:46.607Z,5.87
2022-11-15T15:23:21.575Z,5.84
2022-11-15T15:25:50.308Z,5.85
2022-11-15T15:28:18.602Z,5.86
2022-11-15T15:30:46.577Z,5.87
2022-11-15T15:33:14.589Z,5.87
2022-11-15T15:35:42.672Z,5.88
2022-11-15T15:38:13.065Z,5.86
2022-11-15T15:40:42.643Z,5.82
2022-11-15T15:43:10.587Z,5.71
2022-11-15T15:45:40.370Z,5.67
2022-11-15T15:48:10.643Z,5.68
2022-11-15T15:50:39.756Z,5.68
2022-11-15T15:53:09.145Z,5.68
2022-11-15T15:55:37.294Z,5.68
2022-11-15T15:58:07.693Z,5.68
2022-11-15T16:00:35.702Z,5.69
2022-11-15T16:03:04.122Z,5.69
2022-11-15T16:05:32.093Z,5.70
2022-11-15T16:08:00.168Z,5.71
2022-11-15T16:10:30.265Z,5.70
2022-11-15T16:12:59.845Z,5.69
2022-11-15T16:15:32.495Z,5.69
2022-11-15T16:18:02.360Z,5.73
2022-11-15T16:20:37.117Z,5.72
2022-11-15T16:23:09.690Z,5.75
2022-11-15T16:25:43.230Z,5.77
2022-11-15T16:28:25.562Z,5.78
2022-11-15T16:31:05.089Z,5.78
2022-11-15T16:33:33.889Z,5.75
2022-11-15T16:36:02.275Z,5.74
2022-11-15T16:38:30.619Z,5.73
2022-11-15T16:40:58.904Z,5.73
2022-11-15T16:43:27.083Z,5.76
2022-11-15T16:45:56.610Z,5.74
2022-11-15T16:48:27.777Z,5.70
2022-11-15T16:50:57.957Z,5.72
2022-11-15T16:53:26.549Z,5.73
2022-11-15T16:55:54.970Z,5.75
2022-11-15T16:58:23.029Z,5.76
2022-11-15T17:00:53.804Z,5.75
2022-11-15T17:03:22.237Z,5.76
2022-11-15T17:05:52.141Z,5.77
2022-11-15T17:08:22.054Z,5.74
2022-11-15T17:10:50.501Z,5.72
2022-11-15T17:13:18.801Z,5.70
2022-11-15T17:15:46.879Z,5.68
2022-11-15T17:18:15.803Z,5.66
2022-11-15T17:20:43.923Z,5.65
2022-11-15T17:23:15.620Z,5.68
2022-11-15T17:25:43.979Z,5.68
2022-11-15T17:28:12.245Z,5.69
2022-11-15T17:30:43.117Z,5.65
2022-11-15T17:33:11.290Z,5.63
2022-11-15T17:35:39.376Z,5.60
2022-11-15T17:38:07.378Z,5.56
2022-11-15T17:40:36.809Z,5.53
2022-11-15T17:43:07.681Z,5.54
2022-11-15T17:45:37.611Z,5.49
2022-11-15T17:48:05.817Z,5.49
2022-11-15T17:50:33.937Z,5.50
2022-11-15T17:53:01.905Z,5.53
2022-11-15T17:55:29.941Z,5.56
2022-11-15T17:57:59.321Z,5.58
2022-11-15T18:00:27.510Z,5.60
2022-11-15T18:02:57.958Z,5.55
2022-11-15T18:05:26.005Z,5.54
2022-11-15T18:07:53.972Z,5.56
2022-11-15T18:10:22.015Z,5.57
2022-11-15T18:12:50.141Z,5.60
2022-11-15T18:15:21.409Z,5.61
2022-11-15T18:17:49.451Z,5.61
2022-11-15T18:20:18.070Z,5.61
2022-11-15T18:22:46.115Z,5.55
2022-11-15T18:25:16.218Z,5.51
2022-11-15T18:27:44.388Z,5.53
2022-11-15T18:30:13.522Z,5.54
2022-11-15T18:32:43.085Z,5.54
2022-11-15T18:35:11.136Z,5.53
2022-11-15T18:37:39.163Z,5.53
2022-11-15T18:40:08.402Z,5.53
2022-11-15T18:42:36.456Z,5.54
2022-11-15T18:45:04.945Z,5.50
2022-11-15T18:47:33.020Z,5.52
2022-11-15T18:50:02.430Z,5.55
2022-11-15T18:52:30.851Z,5.56
2022-11-15T18:54:59.039Z,5.57
2022-11-15T18:57:27.085Z,5.60
2022-11-15T18:59:55.157Z,5.62
2022-11-15T19:02:23.305Z,5.63
2022-11-15T19:04:51.288Z,5.65
2022-11-15T19:07:20.830Z,5.65
2022-11-15T19:09:48.968Z,5.67
2022-11-15T19:12:17.001Z,5.67
2022-11-15T19:14:44.998Z,5.71
2022-11-15T19:17:12.989Z,5.70
2022-11-15T19:19:41.184Z,5.72
2022-11-15T19:22:09.190Z,5.72
2022-11-15T19:24:38.635Z,5.72
2022-11-15T19:27:06.753Z,5.72
2022-11-15T19:29:34.792Z,5.71
2022-11-15T19:32:04.009Z,5.72
2022-11-15T19:34:32.096Z,5.73
2022-11-15T19:37:00.149Z,5.71
2022-11-15T19:39:28.261Z,5.70
2022-11-15T19:41:57.686Z,5.71
2022-11-15T19:44:27.262Z,5.71
2022-11-15T19:46:55.421Z,5.72
2022-11-15T19:49:23.612Z,5.73
2022-11-15T19:51:51.715Z,5.74
2022-11-15T19:54:19.775Z,5.74
2022-11-15T19:56:47.776Z,5.75
2022-11-15T19:59:17.431Z,5.78
2022-11-15T20:01:45.635Z,5.77
2022-11-15T20:04:13.644Z,5.77
2022-11-15T20:06:43.150Z,5.75
2022-11-15T20:09:14.093Z,5.76
2022-11-15T20:11:42.627Z,5.75
2022-11-15T20:14:12.902Z,5.75
2022-11-15T20:16:47.948Z,5.75
2022-11-15T20:19:19.539Z,5.75
2022-11-15T20:21:47.629Z,5.76
2022-11-15T20:24:16.212Z,5.76
2022-11-15T20:26:44.389Z,5.75
2022-11-15T20:29:12.493Z,5.72
2022-11-15T20:31:40.610Z,5.70
2022-11-15T20:34:10.039Z,5.71
2022-11-15T20:36:38.103Z,5.75
2022-11-15T20:39:06.132Z,5.74
2022-11-15T20:41:34.287Z,5.71
2022-11-15T20:44:03.146Z,5.71
2022-11-15T20:46:31.289Z,5.68
2022-11-15T20:48:59.399Z,5.69
2022-11-15T20:51:28.889Z,5.67
2022-11-15T20:53:57.317Z,5.69
2022-11-15T20:56:25.329Z,5.67
2022-11-15T20:58:53.486Z,5.67
2022-11-15T21:01:24.485Z,5.67
2022-11-15T21:03:53.966Z,5.68
2022-11-15T21:06:22.442Z,5.70
2022-11-15T21:09:10.320Z,5.72
2022-11-15T21:11:56.404Z,5.73
2022-11-15T21:14:24.526Z,5.75
2022-11-15T21:16:52.633Z,5.73
2022-11-15T21:19:25.424Z,5.70
2022-11-15T21:21:56.172Z,5.70
2022-11-15T21:24:25.840Z,5.68
2022-11-15T21:26:54.613Z,5.68
2022-11-15T21:29:22.821Z,5.68
2022-11-15T21:31:52.761Z,5.63
2022-11-15T21:34:21.429Z,5.62
2022-11-15T21:36:49.429Z,5.59
2022-11-15T21:39:17.415Z,5.55
2022-11-15T21:41:46.875Z,5.57
2022-11-15T21:44:14.869Z,5.57
2022-11-15T21:46:42.867Z,5.57
2022-11-15T21:49:11.038Z,5.51
2022-11-15T21:51:39.402Z,5.35
2022-11-15T21:54:07.732Z,5.30
2022-11-15T21:56:36.902Z,5.29
2022-11-15T21:59:06.292Z,5.32
2022-11-15T22:01:52.024Z,5.37
2022-11-15T22:04:21.503Z,5.41
2022-11-15T22:06:49.545Z,5.42
2022-11-15T22:09:17.553Z,5.46
2022-11-15T22:11:45.565Z,5.47
2022-11-15T22:14:15.164Z,5.49
2022-11-15T22:16:43.164Z,5.53
2022-11-15T22:19:11.339Z,5.53
2022-11-15T22:21:40.155Z,5.55
2022-11-15T22:24:09.208Z,5.59
2022-11-15T22:26:37.411Z,5.56
2022-11-15T22:29:05.599Z,5.54
2022-11-15T22:31:35.148Z,5.48
2022-11-15T22:34:03.298Z,5.44
2022-11-15T22:36:46.906Z,5.42
2022-11-15T22:39:19.671Z,5.47
2022-11-15T22:41:47.846Z,5.50
2022-11-15T22:44:15.933Z,5.55
2022-11-15T22:46:45.422Z,5.56
2022-11-15T22:49:13.544Z,5.53
2022-11-15T22:51:41.772Z,5.49
2022-11-15T22:54:09.951Z,5.47
2022-11-15T22:56:38.161Z,5.44
2022-11-15T22:59:06.325Z,5.48
2022-11-15T23:01:34.578Z,5.50
2022-11-15T23:04:04.275Z,5.49
2022-11-15T23:06:32.502Z,5.48
2022-11-15T23:09:00.746Z,5.47
2022-11-15T23:11:46.376Z,5.47
2022-11-15T23:14:14.567Z,5.47
2022-11-15T23:16:42.873Z,5.45
2022-11-15T23:19:13.420Z,5.42
2022-11-15T23:22:00.425Z,5.40
2022-11-15T23:24:28.803Z,5.37
2022-11-15T23:26:59.041Z,5.32
2022-11-15T23:29:28.708Z,5.32
2022-11-15T23:32:15.342Z,5.30
2022-11-15T23:34:46.596Z,5.26
2022-11-15T23:37:16.600Z,5.15
2022-11-15T23:39:44.769Z,5.09
2022-11-15T23:42:19.991Z,4.99
2022-11-15T23:44:50.101Z,4.95
2022-11-15T23:47:18.550Z,4.95
2022-11-15T23:49:48.447Z,4.91
2022-11-15T23:52:17.421Z,4.91
2022-11-15T23:54:45.599Z,4.89
2022-11-15T23:57:13.818Z,4.80
2022-11-15T23:59:43.542Z,4.80
